createdAt,value
2022-10-01T00:02:00.656Z,100143.84
2022-10-01T00:12:01.893Z,100137.03
2022-10-01T00:22:03.157Z,100102.59
2022-10-01T00:32:04.455Z,100102.38
2022-10-01T00:42:05.789Z,100080.25
2022-10-01T00:52:07.048Z,100097.38
2022-10-01T01:02:08.428Z,100093.59
2022-10-01T01:12:09.822Z,100076.25
2022-10-01T01:22:11.055Z,100043.38
2022-10-01T01:32:14.820Z,99931.06
2022-10-01T01:42:16.359Z,99909.69
2022-10-01T01:52:17.607Z,99971.72
2022-10-01T02:02:18.887Z,99968.22
2022-10-01T02:12:20.118Z,99960.44
2022-10-01T02:22:21.397Z,99970.50
2022-10-01T02:32:22.645Z,99947.63
2022-10-01T02:42:23.863Z,99939.88
2022-10-01T02:52:25.098Z,99933.81
2022-10-01T03:02:26.382Z,99912.00
2022-10-01T03:12:27.752Z,99915.00
2022-10-01T03:22:28.971Z,99909.75
2022-10-01T03:32:30.194Z,99908.50
2022-10-01T03:42:31.395Z,99911.25
2022-10-01T03:52:32.619Z,99913.78
2022-10-01T04:02:33.940Z,99914.03
2022-10-01T04:12:35.195Z,99935.13
2022-10-01T04:22:36.434Z,99937.91
2022-10-01T04:32:37.681Z,99947.19
2022-10-01T04:42:38.929Z,99953.22
2022-10-01T04:52:40.161Z,99953.47
2022-10-01T05:02:41.454Z,99967.78
2022-10-01T05:12:42.734Z,99975.88
2022-10-01T05:22:44.023Z,99991.16
2022-10-01T05:32:45.233Z,100007.22
2022-10-01T05:42:46.561Z,100010.50
2022-10-01T05:52:47.834Z,100027.84
2022-10-01T06:02:56.482Z,100031.91
2022-10-01T06:12:57.830Z,100035.66
2022-10-01T06:22:59.092Z,100051.00
2022-10-01T06:33:00.316Z,100056.00
2022-10-01T06:43:01.655Z,100060.50
2022-10-01T06:53:03.564Z,100073.53
2022-10-01T07:03:04.799Z,100079.00
2022-10-01T07:13:06.037Z,100097.06
2022-10-01T07:23:07.391Z,100101.09
2022-10-01T07:33:08.599Z,100106.63
2022-10-01T07:43:09.818Z,100128.75
2022-10-01T07:53:11.070Z,100154.16
2022-10-01T08:03:12.443Z,100182.31
2022-10-01T08:13:13.776Z,100192.59
2022-10-01T08:23:15.772Z,100198.63
2022-10-01T08:33:16.998Z,100213.19
2022-10-01T08:43:18.425Z,100218.72
2022-10-01T08:53:19.779Z,100223.22
2022-10-01T09:03:21.200Z,100225.00
2022-10-01T09:13:22.520Z,100244.53
2022-10-01T09:23:24.343Z,100255.34
2022-10-01T09:33:25.613Z,100268.41
2022-10-01T09:43:26.930Z,100268.63
2022-10-01T09:53:28.343Z,100268.88
2022-10-01T10:03:33.765Z,100284.25
2022-10-01T10:13:35.381Z,100300.09
2022-10-01T10:23:36.699Z,100321.44
2022-10-01T10:33:38.014Z,100334.25
2022-10-01T10:43:39.468Z,100337.03
2022-10-01T10:53:51.773Z,100368.97
2022-10-01T11:03:55.363Z,100383.06
2022-10-01T11:14:03.462Z,100392.34
2022-10-01T11:24:12.426Z,100415.22
2022-10-01T11:34:20.326Z,100426.50
2022-10-01T11:44:28.807Z,100426.03
2022-10-01T11:54:42.693Z,100433.06
2022-10-01T12:04:44.018Z,100447.66
2022-10-01T12:14:55.603Z,100470.03
2022-10-01T12:25:03.175Z,100485.38
2022-10-01T12:35:07.565Z,100497.19
2022-10-01T12:45:23.560Z,100514.53
2022-10-01T12:55:25.050Z,100534.41
2022-10-01T13:05:36.275Z,100529.88
2022-10-01T13:15:44.417Z,100551.53
2022-10-01T13:25:56.746Z,100573.91
2022-10-01T13:36:00.662Z,100593.03
2022-10-01T13:46:08.501Z,100602.84
2022-10-01T13:56:17.484Z,100611.16
2022-10-01T14:06:25.399Z,100616.94
2022-10-01T14:16:33.646Z,100637.31
2022-10-01T14:26:44.704Z,100660.72
2022-10-01T14:36:51.813Z,100658.94
2022-10-01T14:46:59.541Z,100680.06
2022-10-01T14:57:06.556Z,100693.66
2022-10-01T15:07:14.471Z,100699.94
2022-10-01T15:27:44.961Z,100723.63
2022-10-01T15:48:14.691Z,100774.44
2022-10-01T15:58:15.959Z,100776.94
2022-10-01T16:08:17.326Z,100796.06
2022-10-01T16:18:18.711Z,100799.09
2022-10-01T16:28:21.649Z,100814.16
2022-10-01T16:38:29.469Z,100834.81
2022-10-01T16:48:38.516Z,100849.13
2022-10-01T16:58:46.495Z,100861.94
2022-10-01T17:08:54.496Z,100876.06
2022-10-01T17:18:55.845Z,100894.38
2022-10-01T17:28:57.177Z,100908.22
2022-10-01T17:38:58.556Z,100926.81
2022-10-01T17:48:59.847Z,100935.63
2022-10-01T17:59:01.091Z,100965.78
2022-10-01T18:09:02.402Z,100976.09
2022-10-01T18:29:25.069Z,100997.69
2022-10-01T18:39:26.434Z,101017.84
2022-10-01T18:49:27.804Z,101032.63
2022-10-01T18:59:29.182Z,101050.97
2022-10-01T19:09:30.531Z,101056.78
2022-10-01T19:19:31.899Z,101066.06
2022-10-01T19:29:33.399Z,101070.84
2022-10-01T19:39:34.788Z,101069.03
2022-10-01T19:49:36.132Z,101087.13
2022-10-01T19:59:37.483Z,101116.81
2022-10-01T20:09:38.816Z,101118.81
2022-10-01T20:19:40.190Z,101124.56
2022-10-01T20:29:41.568Z,101129.84
2022-10-01T20:39:42.903Z,101141.44
2022-10-01T20:49:44.137Z,101151.97
2022-10-01T20:59:45.351Z,101154.25
2022-10-01T21:09:46.697Z,101168.84
2022-10-01T21:19:47.926Z,101189.19
2022-10-01T21:29:49.322Z,101187.44
2022-10-01T21:39:50.648Z,101194.72
2022-10-01T21:49:51.881Z,101211.09
2022-10-01T21:59:53.128Z,101206.50
2022-10-01T22:09:54.356Z,101223.09
2022-10-01T22:19:55.585Z,101228.88
2022-10-01T22:29:56.791Z,101242.72
2022-10-01T22:39:58.067Z,101245.72
2022-10-01T22:49:59.317Z,101251.75
2022-10-01T23:00:00.601Z,101256.53
2022-10-01T23:10:01.822Z,101268.84
2022-10-01T23:20:03.059Z,101251.94
2022-10-01T23:30:04.305Z,101250.25
2022-10-01T23:40:05.567Z,101267.31
2022-10-01T23:50:06.795Z,101273.13
